Time;durP1;ratioP1;P1;durP2;ratioP2;P2;SDS_P1;SDS_P2;PMS_P1;PMS_P2;Temp;Humidity;BMP_temperature;BMP_pressure;BME280_temperature;BME280_humidity;BME280_pressure;Samples;Min_cycle;Max_cycle;Signal;HPM_P1;HPM_P2
2021/12/01 00:01:04;;;;;;;7.07;5.75;;;;;;;7.27;91.87;100143.38;10516993;28;20028;-83
2021/12/01 00:06:05;;;;;;;6.40;4.60;;;;;;;7.30;91.60;100133.13;10532892;28;20054;-82
2021/12/01 00:11:06;;;;;;;6.80;5.10;;;;;;;7.28;91.70;100115.66;10532868;28;20028;-82
2021/12/01 00:16:08;;;;;;;7.70;6.07;;;;;;;7.27;91.64;100093.06;10532702;28;20119;-84
2021/12/01 00:21:08;;;;;;;17.73;5.78;;;;;;;7.26;91.73;100076.53;10516604;28;20032;-82
2021/12/01 00:26:09;;;;;;;8.38;6.13;;;;;;;7.27;91.51;100072.22;10532395;28;20153;-82
2021/12/01 00:31:09;;;;;;;8.55;5.65;;;;;;;7.24;91.69;100062.56;10551028;28;20119;-83
2021/12/01 00:36:13;;;;;;;6.30;4.75;;;;;;;7.19;91.92;100045.81;10533778;28;20048;-83
2021/12/01 00:41:14;;;;;;;5.88;4.32;;;;;;;7.16;91.01;100028.38;10532536;28;20058;-83
2021/12/01 00:46:22;;;;;;;5.88;4.20;;;;;;;7.16;90.88;100011.84;10532877;28;20089;-81
2021/12/01 00:51:23;;;;;;;7.22;4.50;;;;;;;7.14;91.19;100008.28;10531581;28;20063;-81
2021/12/01 00:56:23;;;;;;;6.28;4.13;;;;;;;7.11;90.74;99995.13;10532889;28;20455;-83
2021/12/01 01:01:24;;;;;;;7.05;4.20;;;;;;;7.13;90.70;99976.16;10524167;28;20036;-80
2021/12/01 01:06:24;;;;;;;9.02;4.45;;;;;;;7.21;90.51;99979.13;10525720;28;20089;-81
2021/12/01 01:16:44;;;;;;;7.20;4.60;;;;;;;7.22;90.25;99960.06;10542761;28;20462;-81
2021/12/01 01:21:48;;;;;;;6.95;4.10;;;;;;;7.25;90.04;99936.78;10525050;28;20115;-81
2021/12/01 01:26:49;;;;;;;5.38;3.53;;;;;;;7.26;89.76;99930.78;10508050;28;20032;-80
2021/12/01 01:31:54;;;;;;;6.13;4.35;;;;;;;7.27;89.28;99924.75;10522206;28;20076;-81
2021/12/01 01:36:55;;;;;;;5.75;4.40;;;;;;;7.26;89.59;99896.06;10464256;28;20044;-80
2021/12/01 01:41:55;;;;;;;5.82;4.03;;;;;;;7.24;89.03;99890.78;10512877;28;20480;-80
2021/12/01 01:46:56;;;;;;;7.38;4.78;;;;;;;7.24;89.28;99862.13;10524021;28;20034;-80
2021/12/01 01:51:56;;;;;;;5.45;3.80;;;;;;;7.29;89.04;99873.66;10506252;28;20055;-81
2021/12/01 01:56:57;;;;;;;5.18;3.60;;;;;;;7.30;88.25;99865.03;10523303;28;20079;-81
2021/12/01 02:01:58;;;;;;;4.50;2.75;;;;;;;7.40;87.53;99860.22;10522515;28;20074;-82
2021/12/01 02:07:00;;;;;;;4.27;2.53;;;;;;;7.44;87.15;99857.84;10506920;28;20024;-82
2021/12/01 02:12:01;;;;;;;5.80;2.93;;;;;;;7.41;86.19;99855.09;10505199;28;20043;-81
2021/12/01 02:17:01;;;;;;;10.48;4.63;;;;;;;7.42;86.07;99822.13;10505990;28;20060;-80
2021/12/01 02:22:02;;;;;;;5.03;3.50;;;;;;;7.43;85.46;99843.03;10522497;28;20020;-80
2021/12/01 02:27:03;;;;;;;6.82;4.82;;;;;;;7.38;86.09;99830.63;10522483;28;20028;-81
2021/12/01 02:32:04;;;;;;;7.35;5.07;;;;;;;7.36;85.42;99843.59;10521753;28;20078;-81
2021/12/01 02:37:04;;;;;;;5.65;3.80;;;;;;;7.31;85.69;99819.94;10521463;28;20556;-79
2021/12/01 02:42:07;;;;;;;6.32;5.05;;;;;;;7.31;85.34;99799.13;10522096;28;20572;-80
2021/12/01 02:47:08;;;;;;;6.20;4.15;;;;;;;7.18;85.93;99796.81;10505576;28;20024;-80
2021/12/01 02:52:08;;;;;;;8.30;5.50;;;;;;;7.07;86.57;99759.91;10504165;28;20543;-81
2021/12/01 02:57:09;;;;;;;5.55;4.07;;;;;;;6.98;86.87;99749.09;10521078;28;20024;-80
2021/12/01 03:02:09;;;;;;;6.38;4.78;;;;;;;6.99;86.69;99743.09;10504120;28;20032;-80
2021/12/01 03:07:10;;;;;;;5.22;4.13;;;;;;;7.07;86.09;99735.59;10520604;28;20024;-80
2021/12/01 03:12:10;;;;;;;5.95;4.20;;;;;;;7.05;86.11;99732.94;10503267;28;20063;-81
2021/12/01 03:17:11;;;;;;;5.88;4.25;;;;;;;7.05;85.06;99723.41;10539850;28;20368;-80
2021/12/01 03:22:14;;;;;;;6.22;3.97;;;;;;;6.99;86.03;99702.34;10538205;28;20388;-79
2021/12/01 03:27:15;;;;;;;7.93;4.97;;;;;;;6.83;86.70;99698.19;10519647;28;20038;-81
2021/12/01 03:32:15;;;;;;;9.45;4.93;;;;;;;6.69;87.95;99694.09;10520264;28;20028;-80
2021/12/01 03:37:16;;;;;;;7.70;5.95;;;;;;;6.56;87.81;99682.25;10506881;28;20492;-79
2021/12/01 03:42:17;;;;;;;9.32;5.68;;;;;;;6.54;88.55;99653.59;10520000;28;20036;-81
2021/12/01 03:47:17;;;;;;;10.18;6.50;;;;;;;6.46;88.67;99658.44;10502959;28;20062;-80
2021/12/01 03:52:18;;;;;;;10.32;7.28;;;;;;;6.40;88.56;99641.69;10537681;28;20031;-79
2021/12/01 03:57:19;;;;;;;9.38;6.47;;;;;;;6.40;88.79;99620.91;10537994;28;20024;-79
2021/12/01 04:02:19;;;;;;;11.40;6.38;;;;;;;6.42;88.72;99614.94;10518972;28;20082;-79
2021/12/01 04:07:20;;;;;;;12.60;9.23;;;;;;;6.49;87.76;99610.00;10520451;28;20115;-80
2021/12/01 04:12:20;;;;;;;9.23;6.05;;;;;;;6.53;86.97;99604.13;10519270;28;20024;-80
2021/12/01 04:17:21;;;;;;;9.40;6.15;;;;;;;6.59;86.42;99587.09;10518863;28;20036;-82
2021/12/01 04:22:21;;;;;;;9.07;5.85;;;;;;;6.59;85.53;99575.78;10518599;28;20392;-79
2021/12/01 04:27:22;;;;;;;10.63;6.63;;;;;;;6.58;85.75;99556.72;10519484;28;20103;-81
2021/12/01 04:32:22;;;;;;;11.75;6.00;;;;;;;6.64;84.99;99550.88;10501613;28;20052;-80
2021/12/01 04:37:24;;;;;;;7.35;4.90;;;;;;;6.54;85.53;99531.41;10525936;28;20052;-80
2021/12/01 04:42:24;;;;;;;8.47;5.17;;;;;;;6.57;85.56;99512.44;10527626;28;20169;-80
2021/12/01 04:47:36;;;;;;;7.03;4.63;;;;;;;6.54;85.20;99487.22;10544904;28;20181;-80
2021/12/01 04:52:37;;;;;;;10.00;4.22;;;;;;;6.42;85.91;99473.72;10527156;28;20119;-80
2021/12/01 04:57:39;;;;;;;7.70;3.97;;;;;;;6.35;85.50;99461.28;10525678;28;20115;-79
2021/12/01 05:02:40;;;;;;;5.70;3.22;;;;;;;6.37;85.17;99447.50;10544099;28;20038;-80
2021/12/01 05:07:40;;;;;;;8.23;4.55;;;;;;;6.35;85.42;99384.19;10542933;28;20472;-81
2021/12/01 05:12:41;;;;;;;6.70;3.03;;;;;;;6.36;85.25;99413.69;10507957;28;20047;-80
2021/12/01 05:17:41;;;;;;;5.82;3.70;;;;;;;6.33;85.26;99404.03;10525608;28;20062;-80
2021/12/01 05:22:43;;;;;;;4.93;2.90;;;;;;;6.41;84.67;99387.03;10506479;28;20055;-80
2021/12/01 05:27:44;;;;;;;4.28;2.50;;;;;;;6.39;84.75;99375.69;10508676;28;20034;-82
2021/12/01 05:32:44;;;;;;;4.40;2.67;;;;;;;6.40;84.36;99342.81;10522596;28;20124;-79
2021/12/01 05:37:45;;;;;;;6.18;3.08;;;;;;;6.24;86.27;99352.59;10515055;28;20449;-79
2021/12/01 05:42:47;;;;;;;7.10;2.67;;;;;;;6.21;86.60;99334.28;10506769;28;20098;-81
2021/12/01 05:47:47;;;;;;;5.28;3.25;;;;;;;6.18;86.83;99336.75;10540708;28;20336;-80
2021/12/01 05:52:48;;;;;;;5.07;2.92;;;;;;;6.23;86.46;99326.53;10522918;28;20487;-80
2021/12/01 05:57:48;;;;;;;4.25;2.45;;;;;;;6.15;87.07;99285.53;10522596;28;20028;-81
2021/12/01 06:02:51;;;;;;;5.95;2.58;;;;;;;6.01;88.48;99294.50;10539436;28;20024;-83
2021/12/01 06:07:51;;;;;;;;;;;;;;;5.95;88.55;99299.41;10522321;28;20063;-82
2021/12/01 06:12:52;;;;;;;5.35;4.03;;;;;;;5.87;89.58;99276.59;10505010;28;20355;-81
2021/12/01 06:17:53;;;;;;;5.75;3.47;;;;;;;5.87;89.77;99279.19;10519901;28;20519;-82
2021/12/01 06:22:53;;;;;;;5.20;2.65;;;;;;;5.96;89.15;99262.22;10503520;28;20032;-82
2021/12/01 06:27:54;;;;;;;7.18;4.78;;;;;;;5.94;89.75;99259.56;10505113;28;20598;-80
2021/12/01 06:32:55;;;;;;;7.80;4.53;;;;;;;5.93;90.16;99241.31;10505152;28;20093;-81
2021/12/01 06:37:55;;;;;;;5.57;3.60;;;;;;;5.90;90.23;99242.09;10520782;28;20048;-81
2021/12/01 06:42:56;;;;;;;6.18;2.80;;;;;;;5.91;90.54;99189.34;10487810;28;20032;-80
2021/12/01 06:47:56;;;;;;;5.18;2.92;;;;;;;5.95;89.75;99209.41;10520638;28;20371;-82
2021/12/01 06:52:57;;;;;;;7.28;4.32;;;;;;;5.99;90.22;99200.00;10519531;28;20490;-82
2021/12/01 06:57:57;;;;;;;4.28;2.47;;;;;;;6.06;90.17;99198.59;10519247;28;20040;-82
2021/12/01 07:02:58;;;;;;;4.75;2.85;;;;;;;6.04;90.46;99174.28;10486354;28;20419;-79
2021/12/01 07:07:58;;;;;;;4.40;2.85;;;;;;;6.10;90.39;99174.50;10473307;28;20437;-82
2021/12/01 07:12:59;;;;;;;4.22;2.25;;;;;;;6.09;90.52;99188.31;10514744;28;20114;-84
2021/12/01 07:17:59;;;;;;;4.00;2.83;;;;;;;6.11;90.54;99174.56;10502542;28;20109;-82
2021/12/01 07:23:02;;;;;;;4.53;3.00;;;;;;;6.09;90.47;99134.66;10519950;28;20441;-81
2021/12/01 07:28:02;;;;;;;5.22;2.50;;;;;;;6.10;91.02;99177.09;10519062;28;20039;-84
2021/12/01 07:33:03;;;;;;;5.72;3.28;;;;;;;6.13;90.92;99169.44;10519769;28;20031;-83
2021/12/01 07:38:04;;;;;;;3.53;2.20;;;;;;;6.12;90.25;99176.31;10503153;28;20427;-83
2021/12/01 07:43:04;;;;;;;4.45;2.20;;;;;;;6.13;91.21;99169.44;10536992;28;20472;-83
2021/12/01 07:48:05;;;;;;;4.22;2.60;;;;;;;6.09;91.01;99168.41;10536142;28;20089;-84
2021/12/01 07:53:05;;;;;;;4.47;2.63;;;;;;;6.17;91.28;99150.53;10503189;28;20061;-81
2021/12/01 07:58:06;;;;;;;4.13;2.58;;;;;;;6.19;91.39;99137.59;10511597;28;20028;-84
2021/12/01 08:03:06;;;;;;;3.15;2.22;;;;;;;6.19;91.00;99132.41;10484795;28;20029;-85
2021/12/01 08:08:07;;;;;;;3.75;2.20;;;;;;;6.20;91.82;99123.78;10468418;28;20024;-84
2021/12/01 08:13:09;;;;;;;3.10;1.80;;;;;;;6.28;91.72;99106.75;10493810;28;20361;-84
2021/12/01 08:18:10;;;;;;;3.25;2.03;;;;;;;6.29;91.67;99126.72;10526113;28;20036;-85
2021/12/01 08:23:10;;;;;;;3.25;1.40;;;;;;;6.34;91.40;99122.56;10525895;28;20066;-84
2021/12/01 08:28:11;;;;;;;9.60;2.53;;;;;;;6.31;91.51;99115.56;10508842;28;20050;-84
2021/12/01 08:33:12;;;;;;;2.75;1.40;;;;;;;6.40;90.73;99103.72;10544431;28;20070;-79
2021/12/01 08:38:12;;;;;;;6.50;1.25;;;;;;;6.40;91.06;99109.78;10543686;28;20404;-82
2021/12/01 08:43:13;;;;;;;3.13;1.20;;;;;;;6.38;90.96;99106.25;10509513;28;20032;-83
2021/12/01 08:48:13;;;;;;;3.60;1.42;;;;;;;6.39;90.91;99096.75;10509355;28;20052;-79
2021/12/01 08:53:14;;;;;;;2.40;1.00;;;;;;;6.40;90.84;99090.75;10525975;28;20024;-81
2021/12/01 08:58:15;;;;;;;2.13;1.15;;;;;;;6.45;90.93;99100.44;10508386;28;20107;-83
2021/12/01 09:03:16;;;;;;;2.00;1.05;;;;;;;6.67;91.76;99084.75;10507925;28;20058;-79
2021/12/01 09:08:18;;;;;;;5.13;1.20;;;;;;;6.63;91.24;99085.47;10509300;28;20115;-79
2021/12/01 09:13:19;;;;;;;2.70;1.30;;;;;;;6.58;91.07;99085.28;10523521;28;20491;-80
2021/12/01 09:18:20;;;;;;;1.10;0.85;;;;;;;6.56;91.58;99080.06;10474277;28;20480;-80
2021/12/01 09:23:21;;;;;;;1.92;1.30;;;;;;;6.57;91.47;99065.31;10486526;28;20040;-79
2021/12/01 09:28:23;;;;;;;1.42;1.05;;;;;;;6.54;91.50;99066.13;10481731;28;20392;-81
2021/12/01 09:33:23;;;;;;;1.43;1.00;;;;;;;6.58;91.09;99062.78;10490203;28;20393;-82
2021/12/01 09:38:24;;;;;;;1.98;1.50;;;;;;;6.53;91.01;99053.06;10521972;28;20290;-82
2021/12/01 09:43:27;;;;;;;1.10;1.00;;;;;;;6.61;91.08;99054.22;10524804;28;20075;-81
2021/12/01 09:48:27;;;;;;;;;;;;;;;6.66;91.74;99051.78;10506762;28;20051;-81
2021/12/01 09:53:29;;;;;;;2.15;1.40;;;;;;;6.84;91.45;99025.50;10541028;28;20356;-79
2021/12/01 09:58:32;;;;;;;3.20;1.20;;;;;;;6.95;90.99;99036.28;10505969;28;20472;-80
2021/12/01 10:03:33;;;;;;;1.65;1.00;;;;;;;6.96;90.98;99038.91;10539463;28;20312;-81
2021/12/01 10:08:36;;;;;;;3.83;2.08;;;;;;;6.93;90.85;99038.81;10505545;28;20035;-82
2021/12/01 10:13:39;;;;;;;1.77;1.30;;;;;;;6.96;91.04;99032.84;10522486;28;20066;-81
2021/12/01 10:18:41;;;;;;;4.25;1.80;;;;;;;6.90;90.83;99024.00;10506261;28;20360;-80
2021/12/01 10:23:45;;;;;;;4.35;1.70;;;;;;;6.93;91.07;99018.00;10521817;28;20036;-81
2021/12/01 10:28:47;;;;;;;3.22;1.63;;;;;;;6.95;90.89;99018.94;10505193;28;20035;-79
2021/12/01 10:33:48;;;;;;;3.35;2.20;;;;;;;7.01;91.36;99008.72;10522216;28;20479;-81
2021/12/01 10:38:48;;;;;;;3.95;2.42;;;;;;;7.06;90.80;99003.69;10478328;28;20138;-80
2021/12/01 10:43:49;;;;;;;6.30;2.67;;;;;;;7.10;90.55;99007.25;10498174;28;20048;-80
2021/12/01 10:49:07;;;;;;;6.72;2.60;;;;;;;7.13;90.84;99002.16;10478883;28;20025;-80
2021/12/01 10:54:16;;;;;;;1.98;1.55;;;;;;;7.08;89.83;98996.81;10479470;28;20041;-81
2021/12/01 10:59:16;;;;;;;3.15;2.15;;;;;;;7.01;89.15;98998.31;10479157;28;20062;-81
2021/12/01 11:04:43;;;;;;;5.18;2.80;;;;;;;6.92;89.59;99000.63;10496207;28;20490;-82
2021/12/01 11:09:43;;;;;;;4.60;2.58;;;;;;;6.94;88.69;99005.88;10496734;28;20086;-81
2021/12/01 11:14:44;;;;;;;4.82;2.58;;;;;;;6.89;89.18;99003.13;10494685;28;20098;-82
2021/12/01 11:19:45;;;;;;;7.10;2.85;;;;;;;6.83;88.27;99016.81;10496300;28;20048;-81
2021/12/01 11:24:45;;;;;;;5.18;2.50;;;;;;;6.76;88.70;99012.25;10477483;28;20499;-82
2021/12/01 11:29:45;;;;;;;10.05;2.72;;;;;;;6.63;87.49;99015.28;10495215;28;20052;-81
2021/12/01 11:34:48;;;;;;;5.78;2.35;;;;;;;6.65;85.74;99037.00;10459897;28;20056;-82
2021/12/01 11:39:49;;;;;;;;;;;;;;;7.00;85.36;99039.91;10537131;28;20032;-82
2021/12/01 11:44:50;;;;;;;12.23;2.28;;;;;;;7.64;82.22;99029.75;10518835;28;20011;-81
2021/12/01 11:49:50;;;;;;;3.95;2.28;;;;;;;7.71;80.58;99026.47;10503199;28;20387;-80
2021/12/01 11:54:51;;;;;;;5.18;1.85;;;;;;;7.38;81.86;99031.53;10485083;28;20059;-81
2021/12/01 11:59:51;;;;;;;6.70;2.17;;;;;;;7.22;82.57;99036.25;10501754;28;20055;-81
2021/12/01 12:04:56;;;;;;;7.75;2.17;;;;;;;7.09;83.70;99036.69;10536780;28;20430;-82
2021/12/01 12:10:16;;;;;;;17.30;5.80;;;;;;;7.23;83.36;99053.63;10500956;28;20051;-81
2021/12/01 12:15:45;;;;;;;8.95;2.28;;;;;;;7.24;82.37;99044.13;10518989;28;20030;-80
2021/12/01 12:20:53;;;;;;;8.73;2.15;;;;;;;7.17;82.45;99043.94;10536891;28;20040;-81
2021/12/01 12:25:57;;;;;;;5.63;1.48;;;;;;;7.34;81.54;99039.25;10519750;28;20055;-80
2021/12/01 12:31:00;;;;;;;4.28;1.02;;;;;;;7.44;80.24;99052.53;10501727;28;20031;-81
2021/12/01 12:36:03;;;;;;;6.28;2.50;;;;;;;7.09;80.16;99049.72;10516772;28;20060;-80
2021/12/01 12:41:08;;;;;;;7.03;1.40;;;;;;;6.97;80.79;99051.06;10519882;28;20036;-79
2021/12/01 12:46:16;;;;;;;6.68;1.30;;;;;;;7.09;80.53;99053.22;10500872;28;20078;-80
2021/12/01 12:51:26;;;;;;;4.07;1.75;;;;;;;6.98;80.37;99049.38;10518381;28;20017;-80
2021/12/01 12:56:31;;;;;;;3.33;1.38;;;;;;;6.82;81.34;99041.06;10540740;28;20115;-80
2021/12/01 13:01:32;;;;;;;8.77;2.85;;;;;;;6.75;81.66;99047.75;10525011;28;20479;-79
2021/12/01 13:06:32;;;;;;;5.20;1.58;;;;;;;6.74;80.65;99039.94;10524405;28;20028;-79
2021/12/01 13:11:33;;;;;;;8.85;2.17;;;;;;;6.75;81.47;99042.56;10505025;28;20543;-79
2021/12/01 13:16:33;;;;;;;4.15;1.40;;;;;;;6.68;81.24;99053.59;10452501;28;20115;-79
2021/12/01 13:21:37;;;;;;;8.07;1.80;;;;;;;6.58;81.50;99060.19;10497446;28;20063;-79
2021/12/01 13:26:38;;;;;;;3.78;1.90;;;;;;;6.58;81.78;99060.19;10496770;28;20595;-77
2021/12/01 13:31:44;;;;;;;6.07;2.40;;;;;;;6.59;81.45;99061.06;10518587;28;20059;-79
2021/12/01 13:36:57;;;;;;;6.95;2.40;;;;;;;6.68;81.39;99055.31;10495775;28;20059;-79
2021/12/01 13:41:58;;;;;;;4.85;1.92;;;;;;;6.84;81.38;99061.91;10498610;28;20033;-79
2021/12/01 13:47:13;;;;;;;5.00;2.27;;;;;;;6.78;80.60;99065.19;10513102;28;20036;-80
2021/12/01 13:52:44;;;;;;;7.40;3.30;;;;;;;6.70;81.30;99071.84;10488744;28;20028;-80
2021/12/01 13:57:46;;;;;;;11.48;3.67;;;;;;;6.74;81.03;99060.72;10469201;28;20046;-78
2021/12/01 14:02:46;;;;;;;23.10;4.60;;;;;;;6.93;80.63;99070.00;10507523;28;20449;-78
2021/12/01 14:07:48;;;;;;;8.40;2.30;;;;;;;7.19;79.27;99072.59;10480236;28;20090;-79
2021/12/01 14:12:55;;;;;;;9.20;2.88;;;;;;;7.04;80.19;99060.84;10468174;28;20036;-79
2021/12/01 14:17:57;;;;;;;13.63;1.88;;;;;;;6.87;80.59;99075.00;10471914;28;20024;-77
2021/12/01 14:22:58;;;;;;;6.53;2.58;;;;;;;6.58;82.66;99060.19;10513429;28;20036;-78
2021/12/01 14:28:10;;;;;;;4.93;3.00;;;;;;;6.56;82.13;99085.25;10495464;28;20075;-78
2021/12/01 14:33:12;;;;;;;5.43;2.90;;;;;;;6.52;82.61;99085.06;10495621;28;20369;-78
2021/12/01 14:38:14;;;;;;;10.80;3.90;;;;;;;6.46;82.30;99078.84;10508729;28;20508;-77
2021/12/01 14:43:14;;;;;;;;;;;;;;;6.49;82.14;99093.66;10484609;28;20085;-77
2021/12/01 14:48:15;;;;;;;9.18;3.92;;;;;;;6.41;83.30;99085.56;10502173;28;19913;-77
2021/12/01 14:53:17;;;;;;;7.95;4.18;;;;;;;6.30;83.55;99108.59;10498169;28;20024;-78
2021/12/01 14:58:18;;;;;;;10.50;5.43;;;;;;;6.08;85.36;99119.88;10502861;28;20024;-78
2021/12/01 15:03:18;;;;;;;9.20;4.03;;;;;;;5.89;85.83;99120.88;10482503;28;20103;-78
2021/12/01 15:08:40;;;;;;;9.85;4.72;;;;;;;5.85;86.74;99126.78;10492507;28;20416;-78
2021/12/01 15:13:45;;;;;;;12.43;5.53;;;;;;;5.84;87.54;99122.41;10485090;28;20028;-77
2021/12/01 15:18:47;;;;;;;7.75;4.43;;;;;;;5.87;86.62;99125.13;10500474;28;20027;-79
2021/12/01 15:23:57;;;;;;;9.70;5.83;;;;;;;5.86;87.43;99129.44;10479035;28;20036;-80
2021/12/01 15:28:59;;;;;;;11.18;3.97;;;;;;;5.93;87.02;99134.84;10525840;28;20032;-79
2021/12/01 15:34:01;;;;;;;12.40;5.00;;;;;;;5.87;87.42;99143.31;10519071;28;20147;-77
2021/12/01 15:39:02;;;;;;;21.73;7.88;;;;;;;5.76;88.16;99142.00;10489359;28;20058;-76
2021/12/01 15:44:03;;;;;;;28.15;18.58;;;;;;;5.66;88.49;99138.16;10489598;28;20443;-77
2021/12/01 15:49:04;;;;;;;23.27;7.15;;;;;;;5.62;89.15;99136.25;10496564;28;20123;-78
2021/12/01 15:54:04;;;;;;;16.13;6.30;;;;;;;5.57;88.95;99136.94;10496386;28;20456;-77
2021/12/01 15:59:05;;;;;;;13.65;6.22;;;;;;;5.50;89.86;99134.06;10511320;28;20051;-77
2021/12/01 16:04:06;;;;;;;14.93;6.97;;;;;;;5.45;90.11;99149.44;10519111;28;20036;-78
2021/12/01 16:09:06;;;;;;;11.52;6.03;;;;;;;5.41;90.21;99166.59;10517619;28;20141;-78
2021/12/01 16:14:08;;;;;;;27.55;9.65;;;;;;;5.41;89.92;99158.81;10499223;28;20067;-77
2021/12/01 16:19:09;;;;;;;17.17;8.90;;;;;;;5.50;89.98;99171.28;10461474;28;20037;-76
2021/12/01 16:24:09;;;;;;;19.05;8.93;;;;;;;5.51;89.53;99170.44;10501593;28;20491;-78
2021/12/01 16:29:10;;;;;;;23.08;9.80;;;;;;;5.47;89.36;99172.88;10533596;28;20073;-79
2021/12/01 16:34:10;;;;;;;22.23;11.52;;;;;;;5.33;88.86;99190.44;10514529;28;20062;-77
2021/12/01 16:39:11;;;;;;;14.02;5.88;;;;;;;5.30;89.20;99193.81;10543219;28;20046;-78
2021/12/01 16:44:11;;;;;;;18.50;6.80;;;;;;;5.40;89.38;99202.84;10520738;28;20097;-76
2021/12/01 16:49:13;;;;;;;19.60;6.45;;;;;;;5.39;89.27;99208.84;10540442;28;20059;-78
2021/12/01 16:54:13;;;;;;;17.92;7.55;;;;;;;5.38;89.06;99226.16;10508467;28;20036;-78
2021/12/01 16:59:14;;;;;;;14.35;6.78;;;;;;;5.29;89.12;99234.41;10523674;28;20024;-77
2021/12/01 17:04:27;;;;;;;17.73;7.40;;;;;;;5.23;89.11;99257.50;10500103;28;20071;-77
2021/12/01 17:09:30;;;;;;;14.48;4.45;;;;;;;5.07;88.92;99258.56;10506345;28;20460;-77
2021/12/01 17:14:31;;;;;;;12.38;2.78;;;;;;;4.90;88.57;99267.31;10519957;28;20024;-77
2021/12/01 17:19:32;;;;;;;10.48;2.78;;;;;;;4.74;88.73;99271.78;10541079;28;20491;-77
2021/12/01 17:24:32;;;;;;;12.48;3.78;;;;;;;4.59;88.88;99282.31;10522785;28;20500;-77
2021/12/01 17:29:33;;;;;;;4.45;1.98;;;;;;;4.53;88.43;99287.22;10522833;28;20041;-77
2021/12/01 17:34:34;;;;;;;6.60;1.80;;;;;;;4.49;88.72;99304.34;10522755;28;20051;-78
2021/12/01 17:39:38;;;;;;;4.60;1.33;;;;;;;4.33;89.19;99307.91;10458588;28;20189;-78
2021/12/01 17:44:39;;;;;;;6.28;2.65;;;;;;;4.24;89.76;99318.72;10462015;28;20077;-78
2021/12/01 17:49:39;;;;;;;5.57;1.60;;;;;;;4.28;89.17;99334.41;10496138;28;20431;-80
2021/12/01 17:54:40;;;;;;;14.25;1.92;;;;;;;4.32;89.14;99344.09;10497118;28;20021;-81
2021/12/01 17:59:40;;;;;;;4.82;1.85;;;;;;;4.14;89.87;99350.16;10478962;28;20039;-78
2021/12/01 18:04:43;;;;;;;17.05;4.75;;;;;;;3.94;90.05;99365.59;10498186;28;20032;-78
2021/12/01 18:09:44;;;;;;;15.70;4.15;;;;;;;3.74;90.31;99366.31;10480085;28;20056;-77
2021/12/01 18:14:44;;;;;;;6.25;2.63;;;;;;;3.68;90.62;99369.44;10497951;28;20027;-77
2021/12/01 18:19:45;;;;;;;6.82;2.92;;;;;;;3.86;90.88;99387.63;10492362;28;20043;-78
2021/12/01 18:24:46;;;;;;;8.20;3.50;;;;;;;3.97;91.45;99393.34;10454706;28;20051;-76
2021/12/01 18:29:47;;;;;;;7.80;2.47;;;;;;;4.07;91.08;99399.88;10455284;28;20029;-77
2021/12/01 18:34:48;;;;;;;8.95;3.88;;;;;;;4.14;90.20;99401.06;10456692;28;20025;-78
2021/12/01 18:39:49;;;;;;;5.03;1.98;;;;;;;4.24;90.40;99421.41;10479488;28;20036;-77
2021/12/01 18:44:51;;;;;;;8.27;2.60;;;;;;;4.23;89.79;99424.81;10479242;28;20384;-77
2021/12/01 18:49:52;;;;;;;8.32;4.28;;;;;;;4.21;90.21;99429.03;10462817;28;20028;-77
2021/12/01 18:54:55;;;;;;;6.15;2.40;;;;;;;4.19;89.92;99451.38;10476818;28;20028;-77
2021/12/01 18:59:58;;;;;;;12.13;4.10;;;;;;;4.03;90.11;99466.13;10497645;28;20021;-77
2021/12/01 19:04:58;;;;;;;12.05;4.38;;;;;;;3.89;90.66;99455.09;10461868;28;20039;-77
2021/12/01 19:09:59;;;;;;;9.50;4.20;;;;;;;3.80;90.50;99471.00;10495228;28;20107;-77
2021/12/01 19:14:59;;;;;;;10.65;3.65;;;;;;;3.79;90.73;99478.72;10479148;28;20032;-77
2021/12/01 19:20:00;;;;;;;10.75;5.85;;;;;;;3.90;90.68;99493.09;10495725;28;20052;-76
2021/12/01 19:25:05;;;;;;;10.95;3.90;;;;;;;3.98;91.02;99493.50;10476883;28;20135;-77
2021/12/01 19:30:07;;;;;;;7.40;3.70;;;;;;;4.06;90.90;99489.59;10461028;28;20013;-77
2021/12/01 19:35:07;;;;;;;17.00;4.20;;;;;;;4.09;90.85;99502.69;10536407;28;20047;-77
2021/12/01 19:40:09;;;;;;;10.75;3.80;;;;;;;4.08;90.92;99498.34;10518575;28;20036;-77
2021/12/01 19:45:12;;;;;;;17.00;5.20;;;;;;;4.10;91.03;99507.06;10485281;28;20040;-76
2021/12/01 19:50:16;;;;;;;14.25;4.15;;;;;;;4.10;90.83;99516.56;10486910;28;20286;-77
2021/12/01 19:55:18;;;;;;;15.50;4.88;;;;;;;4.05;90.32;99524.06;10502384;28;20111;-77
2021/12/01 20:00:28;;;;;;;13.85;6.30;;;;;;;4.05;91.01;99544.78;10535197;28;20063;-77
2021/12/01 20:05:32;;;;;;;15.98;4.38;;;;;;;4.09;90.70;99536.38;10508814;28;20522;-77
2021/12/01 20:10:33;;;;;;;15.82;6.35;;;;;;;4.02;90.24;99542.03;10526729;28;20032;-77
2021/12/01 20:15:33;;;;;;;8.68;4.00;;;;;;;3.88;90.40;99555.94;10501046;28;20036;-77
2021/12/01 20:20:34;;;;;;;7.25;3.67;;;;;;;3.72;90.11;99562.88;10502631;28;20024;-77
2021/12/01 20:25:36;;;;;;;12.50;5.28;;;;;;;3.44;90.77;99569.13;10539134;28;20040;-77
2021/12/01 20:30:36;;;;;;;10.50;3.67;;;;;;;3.18;90.42;99578.03;10510069;28;20042;-77
2021/12/01 20:35:40;;;;;;;10.30;3.58;;;;;;;3.04;90.75;99585.00;10525504;28;20391;-77
2021/12/01 20:40:42;;;;;;;14.75;4.90;;;;;;;2.92;91.24;99592.97;10492323;28;20080;-77
2021/12/01 20:45:59;;;;;;;7.82;3.88;;;;;;;2.73;91.11;99602.22;10509643;28;20031;-77
2021/12/01 20:56:32;;;;;;;9.75;4.35;;;;;;;2.59;91.49;99618.59;10525038;28;20417;-77
2021/12/01 21:01:33;;;;;;;11.85;5.55;;;;;;;2.71;92.01;99613.25;10526332;28;20114;-78
2021/12/01 21:06:40;;;;;;;11.77;4.47;;;;;;;2.71;91.88;99621.00;10525161;28;20044;-79
2021/12/01 21:11:42;;;;;;;10.57;6.38;;;;;;;2.62;92.17;99626.53;10525665;28;20391;-80
2021/12/01 21:16:44;;;;;;;8.18;4.90;;;;;;;2.49;92.13;99623.22;10496295;28;20499;-78
2021/12/01 21:21:49;;;;;;;12.40;7.05;;;;;;;2.33;92.07;99630.84;10507508;28;20061;-78
2021/12/01 21:26:50;;;;;;;9.98;5.65;;;;;;;2.41;92.17;99639.94;10524684;28;20495;-78
2021/12/01 21:31:51;;;;;;;10.65;5.90;;;;;;;2.44;92.21;99645.28;10523911;28;20024;-78
2021/12/01 21:36:52;;;;;;;13.53;8.33;;;;;;;2.57;92.44;99641.75;10523979;28;20048;-78
2021/12/01 21:41:52;;;;;;;12.52;6.85;;;;;;;2.75;92.79;99656.56;10524400;28;20365;-78
2021/12/01 21:46:53;;;;;;;15.38;8.00;;;;;;;2.88;92.32;99653.91;10523862;28;20032;-78
2021/12/01 21:51:54;;;;;;;15.68;9.70;;;;;;;2.95;92.59;99660.34;10540966;28;20556;-78
2021/12/01 21:56:55;;;;;;;15.05;9.82;;;;;;;3.03;92.52;99647.84;10524095;28;20092;-78
2021/12/01 22:01:59;;;;;;;22.93;8.97;;;;;;;3.08;92.49;99655.06;10507499;28;20032;-78
2021/12/01 22:06:59;;;;;;;15.60;10.25;;;;;;;3.02;92.41;99661.56;10506301;28;20487;-78
2021/12/01 22:12:00;;;;;;;17.67;8.43;;;;;;;3.00;92.94;99673.50;10488213;28;20075;-79
2021/12/01 22:17:01;;;;;;;23.75;10.45;;;;;;;2.92;92.60;99676.53;10483654;28;20089;-79
2021/12/01 22:22:03;;;;;;;17.65;10.18;;;;;;;2.80;92.77;99675.81;10539341;28;20085;-78
2021/12/01 22:27:03;;;;;;;21.52;9.40;;;;;;;2.62;92.41;99662.69;10488486;28;20116;-79
2021/12/01 22:32:04;;;;;;;16.33;9.20;;;;;;;2.63;92.51;99660.19;10504982;28;20114;-78
2021/12/01 22:37:05;;;;;;;15.70;8.65;;;;;;;2.55;92.66;99663.13;10523073;28;20044;-79
2021/12/01 22:42:05;;;;;;;17.23;10.02;;;;;;;2.52;92.28;99670.69;10539270;28;20083;-78
2021/12/01 22:47:08;;;;;;;33.05;11.57;;;;;;;2.56;92.70;99676.13;10521033;28;20086;-79
2021/12/01 22:52:09;;;;;;;15.88;8.95;;;;;;;2.66;93.17;99679.25;10521624;28;20146;-79
2021/12/01 22:57:10;;;;;;;19.08;9.95;;;;;;;2.71;92.94;99672.69;10520663;28;20118;-79
2021/12/01 23:02:14;;;;;;;17.13;9.57;;;;;;;2.63;93.10;99678.28;10519755;28;20054;-79
2021/12/01 23:07:16;;;;;;;15.30;8.95;;;;;;;2.43;92.92;99686.50;10538798;28;20032;-79
2021/12/01 23:12:16;;;;;;;13.03;8.50;;;;;;;2.37;92.67;99692.22;10520128;28;20081;-79
2021/12/01 23:17:17;;;;;;;19.25;10.23;;;;;;;2.38;92.54;99685.34;10520600;28;20060;-79
2021/12/01 23:22:19;;;;;;;19.60;10.23;;;;;;;2.37;93.12;99684.47;10520376;28;20065;-80
2021/12/01 23:27:31;;;;;;;24.25;8.73;;;;;;;2.47;93.01;99686.81;10482531;28;20035;-78
2021/12/01 23:32:38;;;;;;;27.50;13.00;;;;;;;2.54;92.96;99694.94;10526913;28;20040;-78
2021/12/01 23:37:38;;;;;;;20.38;9.70;;;;;;;2.53;93.18;99690.56;10503227;28;20047;-78
2021/12/01 23:42:40;;;;;;;25.85;9.90;;;;;;;2.50;93.25;99688.66;10502459;28;20032;-78
2021/12/01 23:52:53;;;;;;;;;;;;;;;2.55;93.23;99700.16;10537031;28;20061;-79